Skip Navigation Links Skip Navigation Links

Current Weather

West Bend Muni, West Bend, Wis.

For information only: do not use for flight planning or navigation.
Latest weather
Observation time Thursday, October 17, 2019 12:55 AM CDT
Local time Thursday, October 17, 2019 1:24 AM CDT
Flight conditions Visual Meteorological Conditions
Winds
Wind speed calm
Visibility 10 mi.
Sky condition
Ceiling unlimited
Sky clear
Temperature 39°F
Dewpoint 36°F
Altimeter 30.00 in.Hg
Derived measurements
Relative humidity 87%
Wind chill 39°F
Density altitude -431 ft.
Remarks
Fully automated report.
Automated weather observing station with precipitation discriminator.
METAR KETB 170555Z AUTO 00000KT 10SM CLR 04/02 A3000 RMK AO2

Settings

Location code

InnerDrive.Weather 4.0.6770.0 Release CLR 4.0.30319.42000
Copyright ©2018 Inner Drive Technology. All rights reserved. Portions Copyright ©1986-2018 David Braverman.

Find weather

Site navigation


Skip Navigation Links

Place info

Page info

PayPal - The safer, easier way to pay online!

Return home.

Copyright ©2019 Inner Drive Technology. Purveyors of fine, hand-crafted computer software. Page printed 2019-10-17T06:24:20 UTC.